Terminal Aerodrome Forecast
Issued by NWS Tulsa, OK

Current Version | Previous Version | Text Only | Print | Product List | Glossary On
Versions: 1 2 3 4 5 6 7 8 9 10 11 12 13
000
FTUS44 KTSA 311100
TAFTUL
TAF
KTUL 311120Z 3112/0112 VRB05KT P6SM OVC090
     FM311600 15010KT P6SM OVC050
     FM311800 16010KT 5SM -RA BR OVC035
     FM312300 16008KT 5SM RA BR BKN025
     FM010300 14005KT 4SM RA BR OVC015=

USA.gov is the U.S. government's official web portal to all federal, state and local government web resources and services.